Beaumont, TX (77701)

5:14 AM CST on December 19, 2014 (GMT -0600)
Beaumont Municipal | Change Station
CLOSE
Current Station
Airport
Location: Beaumont / Port Arthur,
Elevation: 33 ft
Nearby Weather Stations
Active Advisory: Areal Flood Advisory

Elev 33 ft 30.07 °N, 94.22 °W | Updated 19 minutes ago

Rain
Rain
58 °F
Feels Like 58 °F
N
5
Wind Variable Wind from NE

Today
High -- | Low -- °F
--% Chance of Precip.
Yesterday
High -- | Low -- °F
Precip. -- in
7:07 AM 5:19 PM
Waning Crescent, 8% visible
Pressure 30.04 in
Visibility 10.0 miles
Clouds Mostly Cloudy 400 ft
Mostly Cloudy 1500 ft
Overcast 6000 ft
Dew Point 58 °F
Humidity 99%
Rainfall 0.00 in
Snow Depth Not available.
UV 0 out of 12
Pollen 4.30 out of 12
Air Quality Not available.
Flu Activity Not available.
METAR KBMT 191055Z AUTO 04004KT 10SM -RA BKN004 BKN015 OVC060 15/14 A3004 RMK AO2 T01460144

More Conditions Fewer Conditions

Pressure 30.04 in
Visibility 10.0 miles
Clouds Mostly Cloudy 400 ft
Mostly Cloudy 1500 ft
Overcast 6000 ft
Dew Point 58 °F
Humidity 99%
Rainfall 0.00 in
Snow Depth Not available.
UV 0 out of 12
Pollen 4.30 out of 12
Air Quality Not available.
Flu Activity Not available.
METAR KBMT 191055Z AUTO 04004KT 10SM -RA BKN004 BKN015 OVC060 15/14 A3004 RMK AO2 T01460144

More Conditions Fewer Conditions

Nowcast | as of 3:45 am CST on December 19, 2014

A large area of rain and showers mixed covers most of southeast Texas and southern Louisiana this morning. Rains will be heaviest along and north of the I-10 corridor. Rains are moving to the northeast. Isolated thunderstorms will be possible through the morning hours.

×

10-Day Weather Forecast

Almanac

Astronomy

Dec. 19, 2014 Rise Set
Actual Time
Civil Twilight
Nautical Twilight
Astronomical Twilight
Moon
Length of Visible Light
Length of Day
Tomorrow will be .
, % of the Moon is Illuminated

Today's Extremes

State Highs State Lows

Community

WunderPhotos

Upload Photos

1,778,965 photos uploaded!

WunderBlogs® & News

Nearby

Air Quality

  Air Quality AQ Index Pollutant
Not available.

Snow Depth

Station Depth Elevation

Earthquake Activity

City Distance Mag. Time & Date
Minimum magnitude displayed is 2.5.

Coastal Water Temperatures

Place Temperature

Nearby Weather Stations